Pacific Palisades, CA (90272)

10:25 AM PST on February 09, 2016 (GMT -0800)
KCAPACIF37 | | Change Station
CLOSE
Current Station
Personal Weather Station
Location: Pacific Palisades, CA
Elevation: 312 ft
Nearby Weather Stations

Elev 312 ft 34.05 °N, 118.54 °W | Updated 2 minutes ago

Clear
Clear
79.9 °F
Feels Like 79 °F
N
0.0
Wind Variable Wind from WSW
Gusts 3.0 mph

Today
High -- | Low -- °F
--% Chance of Precip.
Yesterday
High -- | Low -- °F
Precip. -- in
Pressure 30.17 in
Visibility 10.0 miles
Clouds Clear
Heat Index 79 °F
Dew Point 35 °F
Humidity 20%
Rainfall 0.00 in
Snow Depth Not available.
6:45 AM 5:32 PM
New Moon, 2% visible
METAR KSMO 091751Z 03005KT 10SM CLR 28/M02 A3017 RMK AO2 SLP214 T02831017 10283 20139 50007
Pressure 30.17 in
Visibility 10.0 miles
Clouds Clear
Heat Index 79 °F
Dew Point 35 °F
Humidity 20%
Rainfall 0.00 in
Snow Depth Not available.
6:45 AM 5:32 PM
New Moon, 2% visible
METAR KSMO 091751Z 03005KT 10SM CLR 28/M02 A3017 RMK AO2 SLP214 T02831017 10283 20139 50007

10-Day Weather Forecast

Almanac

Astronomy

Feb. 09, 2016 Rise Set
Actual Time
Civil Twilight
Nautical Twilight
Astronomical Twilight
Moon
Length of Visible Light
Length of Day
Tomorrow will be .
, % of the Moon is Illuminated

Today's Extremes

State Highs State Lows

Community

WunderPhotos

Upload Photos

1,891,655 photos uploaded!

WunderBlog® & News

Nearby

Air Quality

  Air Quality AQ Index Pollutant
Not available.

Snow Depth

Station Depth Elevation

Earthquake Activity

City Distance Mag. Time & Date
Minimum magnitude displayed is 2.5.

Coastal Water Temperatures

Place Temperature

Stations

Nearby Weather Stations

Station Location Temp. Windchill Dew Point Humidity Wind Precip. Elev Updated Type
                   

Watches & Warnings

There are currently no watches in effect.